createdAt,value
2018-12-16T00:00:25.385Z,92.55
2018-12-16T00:02:51.349Z,92.34
2018-12-16T00:05:17.515Z,92.83
2018-12-16T00:07:43.371Z,93.04
2018-12-16T00:10:09.332Z,92.54
2018-12-16T00:12:35.198Z,92.07
2018-12-16T00:15:01.068Z,91.42
2018-12-16T00:17:26.903Z,91.35
2018-12-16T00:19:52.846Z,92.53
2018-12-16T00:22:19.251Z,93.06
2018-12-16T00:24:45.333Z,93.86
2018-12-16T00:27:11.940Z,93.57
2018-12-16T00:29:37.958Z,93.89
2018-12-16T00:32:04.576Z,94.22
2018-12-16T00:34:30.573Z,94.24
2018-12-16T00:36:56.449Z,94.91
2018-12-16T00:39:22.464Z,94.92
2018-12-16T00:41:48.306Z,95.99
2018-12-16T00:44:14.294Z,96.12
2018-12-16T00:46:40.355Z,96.30
2018-12-16T00:49:06.231Z,97.23
2018-12-16T00:51:32.209Z,97.39
2018-12-16T00:53:58.100Z,98.34
2018-12-16T00:56:23.983Z,99.02
2018-12-16T00:58:49.831Z,99.60
2018-12-16T01:01:15.839Z,99.16
2018-12-16T01:03:41.737Z,98.59
2018-12-16T01:06:07.663Z,98.22
2018-12-16T01:08:33.530Z,98.08
2018-12-16T01:10:59.394Z,97.50
2018-12-16T01:13:25.237Z,98.24
2018-12-16T01:15:51.082Z,99.44
2018-12-16T01:18:16.941Z,100.00
2018-12-16T01:20:42.865Z,99.64
2018-12-16T01:23:08.726Z,99.59
2018-12-16T01:25:34.638Z,100.00
2018-12-16T01:28:00.493Z,99.70
2018-12-16T01:30:26.445Z,99.91
2018-12-16T01:32:52.496Z,99.76
2018-12-16T01:35:18.397Z,99.02
2018-12-16T01:37:44.345Z,98.91
2018-12-16T01:40:10.476Z,98.99
2018-12-16T01:42:36.405Z,99.54
2018-12-16T01:45:02.678Z,99.65
2018-12-16T01:47:28.542Z,99.44
2018-12-16T01:49:54.584Z,99.57
2018-12-16T01:52:20.478Z,100.00
2018-12-16T01:54:46.294Z,99.57
2018-12-16T01:57:12.355Z,99.16
2018-12-16T01:59:38.318Z,98.60
2018-12-16T02:02:04.432Z,98.03
2018-12-16T02:04:30.305Z,97.95
2018-12-16T02:06:56.145Z,98.18
2018-12-16T02:09:21.998Z,98.77
2018-12-16T02:11:47.830Z,98.30
2018-12-16T02:14:13.696Z,98.17
2018-12-16T02:16:39.547Z,97.69
2018-12-16T02:19:05.480Z,98.37
2018-12-16T02:21:31.350Z,99.36
2018-12-16T02:23:57.210Z,99.43
2018-12-16T02:26:23.102Z,98.90
2018-12-16T02:28:48.953Z,98.17
2018-12-16T02:31:14.805Z,98.47
2018-12-16T02:33:40.684Z,98.81
2018-12-16T02:36:06.556Z,99.24
2018-12-16T02:38:32.446Z,100.00
2018-12-16T02:40:58.302Z,99.91
2018-12-16T02:43:24.185Z,100.00
2018-12-16T02:45:50.057Z,100.00
2018-12-16T02:48:15.966Z,100.00
2018-12-16T02:50:41.824Z,100.00
2018-12-16T02:53:07.709Z,100.00
2018-12-16T02:55:33.666Z,100.00
2018-12-16T02:57:59.532Z,100.00
2018-12-16T03:00:25.403Z,100.00
2018-12-16T03:02:51.359Z,100.00
2018-12-16T03:05:17.230Z,100.00
2018-12-16T03:07:43.203Z,100.00
2018-12-16T03:10:09.129Z,100.00
2018-12-16T03:12:34.986Z,100.00
2018-12-16T03:15:00.969Z,100.00
2018-12-16T03:17:26.838Z,100.00
2018-12-16T03:19:52.752Z,100.00
2018-12-16T03:22:18.596Z,100.00
2018-12-16T03:24:44.481Z,99.37
2018-12-16T03:27:10.395Z,99.19
2018-12-16T03:29:36.446Z,99.02
2018-12-16T03:32:02.418Z,98.33
2018-12-16T03:34:28.374Z,98.76
2018-12-16T03:37:01.133Z,99.91
2018-12-16T03:39:26.963Z,100.00
2018-12-16T03:41:52.882Z,100.00
2018-12-16T03:44:18.762Z,100.00
2018-12-16T03:46:44.957Z,100.00
2018-12-16T03:49:10.829Z,100.00
2018-12-16T03:51:36.698Z,100.00
2018-12-16T03:54:02.684Z,100.00
2018-12-16T03:56:28.583Z,100.00
2018-12-16T03:59:06.846Z,100.00
2018-12-16T04:01:32.737Z,100.00
2018-12-16T04:03:58.664Z,100.00
2018-12-16T04:06:24.614Z,100.00
2018-12-16T04:08:57.443Z,100.00
2018-12-16T04:11:23.302Z,100.00
2018-12-16T04:13:49.158Z,100.00
2018-12-16T04:16:15.018Z,100.00
2018-12-16T04:18:47.981Z,100.00
2018-12-16T04:21:13.842Z,100.00
2018-12-16T04:23:39.747Z,100.00
2018-12-16T04:26:05.596Z,100.00
2018-12-16T04:28:38.757Z,100.00
2018-12-16T04:31:04.646Z,100.00
2018-12-16T04:33:30.543Z,100.00
2018-12-16T04:35:56.405Z,100.00
2018-12-16T04:38:22.374Z,100.00
2018-12-16T04:40:48.290Z,100.00
2018-12-16T04:43:14.149Z,100.00
2018-12-16T04:45:40.074Z,100.00
2018-12-16T04:48:05.957Z,100.00
2018-12-16T04:50:32.139Z,100.00
2018-12-16T04:52:57.982Z,100.00
2018-12-16T04:55:23.841Z,100.00
2018-12-16T04:57:49.836Z,100.00
2018-12-16T05:00:15.979Z,100.00
2018-12-16T05:02:41.833Z,100.00
2018-12-16T05:05:07.890Z,100.00
2018-12-16T05:07:33.737Z,100.00
2018-12-16T05:10:12.302Z,100.00
2018-12-16T05:12:38.139Z,100.00
2018-12-16T05:15:04.093Z,100.00
2018-12-16T05:17:29.928Z,100.00
2018-12-16T05:19:55.811Z,100.00
2018-12-16T05:22:21.651Z,100.00
2018-12-16T05:24:47.561Z,100.00
2018-12-16T05:27:13.520Z,100.00
2018-12-16T05:29:39.358Z,100.00
2018-12-16T05:32:05.213Z,100.00
2018-12-16T05:34:31.038Z,100.00
2018-12-16T05:36:56.880Z,100.00
2018-12-16T05:39:22.809Z,100.00
2018-12-16T05:41:48.670Z,100.00
2018-12-16T05:44:14.553Z,100.00
2018-12-16T05:46:40.378Z,100.00
2018-12-16T05:49:06.242Z,100.00
2018-12-16T05:51:32.080Z,100.00
2018-12-16T05:53:57.930Z,100.00
2018-12-16T05:56:23.872Z,100.00
2018-12-16T05:58:49.706Z,100.00
2018-12-16T06:01:15.592Z,100.00
2018-12-16T06:03:41.454Z,100.00
2018-12-16T06:06:07.321Z,100.00
2018-12-16T06:08:33.170Z,100.00
2018-12-16T06:10:59.052Z,100.00
2018-12-16T06:13:24.962Z,100.00
2018-12-16T06:15:50.881Z,100.00
2018-12-16T06:18:16.791Z,100.00
2018-12-16T06:20:42.797Z,100.00
2018-12-16T06:23:08.950Z,100.00
2018-12-16T06:25:34.822Z,100.00
2018-12-16T06:28:00.681Z,100.00
2018-12-16T06:30:27.507Z,100.00
2018-12-16T06:32:53.343Z,100.00
2018-12-16T06:35:19.215Z,100.00
2018-12-16T06:37:45.073Z,100.00
2018-12-16T06:40:10.958Z,100.00
2018-12-16T06:42:36.811Z,100.00
2018-12-16T06:45:03.865Z,100.00
2018-12-16T06:47:29.717Z,100.00
2018-12-16T06:49:55.551Z,100.00
2018-12-16T06:52:21.424Z,100.00
2018-12-16T06:54:47.262Z,100.00
2018-12-16T06:57:13.141Z,100.00
2018-12-16T06:59:39.109Z,100.00
2018-12-16T07:02:05.020Z,100.00
2018-12-16T07:04:30.878Z,100.00
2018-12-16T07:06:56.740Z,100.00
2018-12-16T07:09:22.595Z,100.00
2018-12-16T07:11:48.678Z,100.00
2018-12-16T07:14:14.674Z,100.00
2018-12-16T07:16:40.728Z,100.00
2018-12-16T07:19:06.734Z,100.00
2018-12-16T07:21:32.671Z,100.00
2018-12-16T07:23:58.693Z,100.00
2018-12-16T07:26:24.613Z,100.00
2018-12-16T07:28:50.542Z,100.00
2018-12-16T07:31:16.477Z,100.00
2018-12-16T07:33:42.437Z,100.00
2018-12-16T07:36:08.339Z,100.00
2018-12-16T07:38:34.230Z,100.00
2018-12-16T07:41:00.082Z,100.00
2018-12-16T07:43:25.984Z,100.00
2018-12-16T07:45:51.829Z,100.00
2018-12-16T07:48:18.251Z,100.00
2018-12-16T07:50:44.272Z,100.00
2018-12-16T07:53:10.160Z,100.00
2018-12-16T07:55:36.059Z,100.00
2018-12-16T07:58:02.152Z,100.00
2018-12-16T08:00:28.118Z,100.00
2018-12-16T08:02:53.955Z,100.00
2018-12-16T08:05:19.979Z,100.00
2018-12-16T08:07:45.874Z,100.00
2018-12-16T08:10:11.707Z,100.00
2018-12-16T08:12:37.649Z,100.00
2018-12-16T08:15:04.330Z,100.00
2018-12-16T08:17:30.226Z,100.00
2018-12-16T08:19:56.122Z,100.00
2018-12-16T08:22:22.010Z,100.00
2018-12-16T08:24:47.835Z,100.00
2018-12-16T08:27:13.706Z,100.00
2018-12-16T08:29:39.586Z,100.00
2018-12-16T08:32:05.479Z,100.00
2018-12-16T08:34:31.333Z,100.00
2018-12-16T08:36:57.232Z,100.00
2018-12-16T08:39:23.062Z,100.00
2018-12-16T08:41:55.989Z,100.00
2018-12-16T08:44:21.877Z,100.00
2018-12-16T08:46:47.751Z,100.00
2018-12-16T08:49:13.650Z,100.00
2018-12-16T08:51:39.505Z,100.00
2018-12-16T08:54:05.389Z,100.00
2018-12-16T08:56:31.297Z,100.00
2018-12-16T08:58:57.194Z,100.00
2018-12-16T09:01:23.088Z,100.00
2018-12-16T09:03:49.490Z,100.00
2018-12-16T09:06:15.450Z,100.00
2018-12-16T09:08:41.646Z,100.00
2018-12-16T09:11:07.527Z,100.00
2018-12-16T09:13:33.524Z,100.00
2018-12-16T09:15:59.425Z,100.00
2018-12-16T09:18:25.385Z,100.00
2018-12-16T09:23:43.959Z,99.07
2018-12-16T09:26:10.343Z,99.36
2018-12-16T09:28:36.334Z,99.19
2018-12-16T09:31:02.298Z,99.32
2018-12-16T09:33:28.257Z,99.21
2018-12-16T09:35:54.241Z,99.14
2018-12-16T09:38:20.171Z,99.27
2018-12-16T09:40:46.046Z,98.28
2018-12-16T09:43:13.189Z,97.49
2018-12-16T09:45:39.098Z,97.75
2018-12-16T09:48:05.017Z,97.61
2018-12-16T09:50:30.983Z,96.44
2018-12-16T09:53:03.798Z,96.62
2018-12-16T09:55:29.667Z,97.14
2018-12-16T09:57:55.522Z,97.43
2018-12-16T10:00:21.382Z,97.56
2018-12-16T10:02:47.255Z,97.25
2018-12-16T10:05:13.387Z,96.97
2018-12-16T10:07:40.252Z,97.06
2018-12-16T10:10:07.235Z,97.37
2018-12-16T10:12:34.134Z,97.13
2018-12-16T10:15:00.020Z,96.39
2018-12-16T10:17:25.906Z,96.35
2018-12-16T10:19:51.855Z,96.79
2018-12-16T10:22:17.698Z,96.32
2018-12-16T10:24:43.614Z,95.28
2018-12-16T10:27:09.475Z,95.21
2018-12-16T10:29:35.541Z,94.73
2018-12-16T10:32:01.389Z,94.55
2018-12-16T10:34:27.269Z,93.73
2018-12-16T10:36:53.236Z,92.90
2018-12-16T10:39:19.135Z,92.18
2018-12-16T10:41:44.985Z,90.84
2018-12-16T10:44:11.003Z,90.46
2018-12-16T10:46:36.866Z,89.79
2018-12-16T10:49:04.876Z,89.84
2018-12-16T10:51:30.838Z,87.86
2018-12-16T10:53:56.713Z,87.36
2018-12-16T10:56:22.592Z,88.29
2018-12-16T10:58:48.523Z,87.65
2018-12-16T11:01:20.479Z,86.29
2018-12-16T11:03:46.315Z,86.51
2018-12-16T11:06:12.176Z,87.23
2018-12-16T11:08:38.742Z,85.69
2018-12-16T11:11:04.655Z,86.11
2018-12-16T11:13:30.601Z,86.57
2018-12-16T11:16:03.468Z,87.21
2018-12-16T11:18:29.366Z,87.50
2018-12-16T11:20:55.237Z,86.82
2018-12-16T11:23:21.129Z,86.13
2018-12-16T11:25:47.087Z,86.63
2018-12-16T11:28:12.943Z,87.54
2018-12-16T11:30:38.947Z,85.63
2018-12-16T11:33:04.924Z,84.84
2018-12-16T11:35:30.838Z,85.44
2018-12-16T11:37:56.691Z,85.88
2018-12-16T11:40:22.581Z,85.88
2018-12-16T11:42:48.427Z,85.96
2018-12-16T11:45:14.283Z,86.02
2018-12-16T11:47:40.146Z,85.50
2018-12-16T11:50:06.185Z,85.79
2018-12-16T11:52:32.055Z,87.24
2018-12-16T11:54:57.907Z,88.75
2018-12-16T11:57:23.750Z,88.86
2018-12-16T11:59:49.661Z,89.35
2018-12-16T12:02:15.601Z,90.59
2018-12-16T12:04:41.450Z,92.38
2018-12-16T12:07:07.298Z,93.71
2018-12-16T12:09:33.161Z,95.04
2018-12-16T12:11:59.434Z,96.50
2018-12-16T12:14:26.177Z,96.04
2018-12-16T12:16:52.206Z,96.61
2018-12-16T12:19:18.604Z,98.63
2018-12-16T12:21:44.830Z,99.34
2018-12-16T12:24:10.694Z,99.68
2018-12-16T12:26:36.552Z,100.00
2018-12-16T12:29:02.416Z,99.78
2018-12-16T12:31:28.379Z,99.00
2018-12-16T12:33:54.228Z,99.59
2018-12-16T12:36:20.074Z,99.50
2018-12-16T12:38:47.983Z,100.00
2018-12-16T12:41:16.090Z,100.00
2018-12-16T12:43:41.972Z,100.00
2018-12-16T12:46:08.858Z,100.00
2018-12-16T12:48:34.766Z,100.00
2018-12-16T12:51:00.663Z,100.00
2018-12-16T12:53:26.491Z,100.00
2018-12-16T12:55:53.188Z,100.00
2018-12-16T12:58:19.083Z,100.00
2018-12-16T13:00:44.998Z,100.00
2018-12-16T13:03:10.857Z,100.00
2018-12-16T13:05:37.092Z,100.00
2018-12-16T13:08:03.388Z,100.00
2018-12-16T13:10:29.313Z,100.00
2018-12-16T13:12:57.170Z,100.00
2018-12-16T13:15:23.232Z,100.00
2018-12-16T13:17:49.139Z,100.00
2018-12-16T13:20:15.265Z,100.00
2018-12-16T13:22:41.185Z,100.00
2018-12-16T13:25:19.458Z,100.00
2018-12-16T13:27:45.330Z,100.00
2018-12-16T13:30:11.259Z,100.00
2018-12-16T13:32:37.215Z,100.00
2018-12-16T13:35:04.302Z,100.00
2018-12-16T13:37:31.123Z,100.00
2018-12-16T13:39:57.236Z,100.00
2018-12-16T13:42:26.026Z,100.00
2018-12-16T13:44:52.309Z,100.00
2018-12-16T13:47:18.259Z,100.00
2018-12-16T13:49:44.141Z,100.00
2018-12-16T13:52:10.018Z,100.00
2018-12-16T13:54:35.926Z,100.00
2018-12-16T13:57:01.787Z,100.00
2018-12-16T13:59:27.623Z,100.00
2018-12-16T14:01:54.706Z,100.00
2018-12-16T14:04:20.570Z,100.00
2018-12-16T14:06:46.428Z,100.00
2018-12-16T14:09:12.320Z,100.00
2018-12-16T14:11:38.175Z,100.00
2018-12-16T14:14:04.067Z,100.00
2018-12-16T14:16:30.078Z,100.00
2018-12-16T14:18:55.960Z,100.00
2018-12-16T14:21:21.834Z,100.00
2018-12-16T14:23:47.746Z,100.00
2018-12-16T14:26:13.623Z,100.00
2018-12-16T14:28:39.502Z,100.00
2018-12-16T14:31:05.492Z,100.00
2018-12-16T14:33:31.426Z,100.00
2018-12-16T14:35:57.308Z,100.00
2018-12-16T14:38:23.738Z,100.00
2018-12-16T14:40:49.655Z,100.00
2018-12-16T14:43:15.547Z,100.00
2018-12-16T14:45:42.028Z,100.00
2018-12-16T14:48:08.024Z,100.00
2018-12-16T14:50:33.905Z,100.00
2018-12-16T14:52:59.810Z,100.00
2018-12-16T14:55:25.769Z,100.00
2018-12-16T14:57:51.663Z,100.00
2018-12-16T15:00:17.662Z,100.00
2018-12-16T15:02:43.583Z,100.00
2018-12-16T15:05:09.616Z,100.00
2018-12-16T15:07:35.490Z,100.00
2018-12-16T15:10:02.013Z,100.00
2018-12-16T15:12:28.169Z,100.00
2018-12-16T15:14:54.163Z,100.00
2018-12-16T15:17:20.163Z,100.00
2018-12-16T15:19:46.058Z,100.00
2018-12-16T15:22:12.005Z,100.00
2018-12-16T15:24:37.984Z,100.00
2018-12-16T15:27:03.874Z,100.00
2018-12-16T15:29:29.751Z,100.00
2018-12-16T15:31:55.594Z,100.00
2018-12-16T15:34:21.528Z,100.00
2018-12-16T15:36:47.390Z,100.00
2018-12-16T15:39:13.262Z,100.00
2018-12-16T15:41:39.175Z,100.00
2018-12-16T15:44:05.094Z,100.00
2018-12-16T15:46:31.037Z,100.00
2018-12-16T15:48:56.897Z,100.00
2018-12-16T15:51:22.802Z,100.00
2018-12-16T15:53:48.681Z,100.00
2018-12-16T15:56:14.584Z,100.00
2018-12-16T15:58:40.651Z,100.00
2018-12-16T16:01:06.568Z,100.00
2018-12-16T16:03:32.554Z,100.00
2018-12-16T16:05:58.543Z,100.00
2018-12-16T16:08:24.427Z,100.00
2018-12-16T16:10:50.300Z,100.00
2018-12-16T16:13:16.183Z,100.00
2018-12-16T16:15:42.085Z,100.00
2018-12-16T16:18:07.930Z,100.00
2018-12-16T16:20:33.783Z,100.00
2018-12-16T16:22:59.862Z,100.00
2018-12-16T16:25:25.887Z,100.00
2018-12-16T16:27:51.801Z,100.00
2018-12-16T16:30:17.708Z,100.00
2018-12-16T16:32:43.564Z,100.00
2018-12-16T16:35:09.490Z,100.00
2018-12-16T16:37:35.392Z,100.00
2018-12-16T16:40:01.256Z,100.00
2018-12-16T16:42:27.138Z,100.00
2018-12-16T16:44:53.039Z,100.00
2018-12-16T16:47:18.947Z,100.00
2018-12-16T16:49:44.846Z,100.00
2018-12-16T16:52:10.904Z,100.00
2018-12-16T16:54:36.782Z,100.00
2018-12-16T16:57:02.644Z,100.00
2018-12-16T16:59:28.516Z,100.00
2018-12-16T17:01:54.373Z,100.00
2018-12-16T17:04:20.222Z,100.00
2018-12-16T17:06:46.086Z,100.00
2018-12-16T17:09:12.097Z,100.00
2018-12-16T17:11:37.986Z,100.00
2018-12-16T17:14:03.839Z,100.00
2018-12-16T17:16:29.819Z,100.00
2018-12-16T17:18:57.524Z,100.00
2018-12-16T17:21:23.728Z,100.00
2018-12-16T17:23:49.619Z,100.00
2018-12-16T17:26:15.508Z,100.00
2018-12-16T17:28:41.374Z,100.00
2018-12-16T17:31:07.289Z,100.00
2018-12-16T17:33:33.183Z,100.00
2018-12-16T17:35:59.184Z,100.00
2018-12-16T17:38:25.193Z,100.00
2018-12-16T17:40:51.181Z,100.00
2018-12-16T17:43:17.235Z,100.00
2018-12-16T17:45:43.133Z,100.00
2018-12-16T17:48:09.018Z,100.00
2018-12-16T17:50:34.972Z,100.00
2018-12-16T17:53:00.853Z,100.00
2018-12-16T17:55:26.709Z,100.00
2018-12-16T17:57:52.595Z,100.00
2018-12-16T18:00:18.866Z,100.00
2018-12-16T18:02:44.844Z,100.00
2018-12-16T18:05:10.763Z,100.00
2018-12-16T18:07:36.650Z,100.00
2018-12-16T18:10:03.420Z,100.00
2018-12-16T18:12:29.283Z,100.00
2018-12-16T18:14:55.155Z,100.00
2018-12-16T18:17:21.010Z,100.00
2018-12-16T18:19:46.887Z,100.00
2018-12-16T18:22:14.187Z,100.00
2018-12-16T18:24:40.386Z,100.00
2018-12-16T18:27:06.351Z,100.00
2018-12-16T18:29:32.269Z,100.00
2018-12-16T18:31:58.212Z,100.00
2018-12-16T18:34:24.641Z,100.00
2018-12-16T18:36:50.540Z,100.00
2018-12-16T18:39:16.390Z,100.00
2018-12-16T18:41:42.676Z,100.00
2018-12-16T18:44:08.554Z,100.00
2018-12-16T18:46:34.457Z,100.00
2018-12-16T18:49:00.409Z,100.00
2018-12-16T18:51:26.273Z,100.00
2018-12-16T18:53:52.123Z,100.00
2018-12-16T18:56:17.999Z,100.00
2018-12-16T18:58:43.880Z,100.00
2018-12-16T19:01:09.761Z,100.00
2018-12-16T19:03:35.668Z,100.00
2018-12-16T19:06:01.570Z,100.00
2018-12-16T19:08:27.495Z,100.00
2018-12-16T19:10:53.444Z,100.00
2018-12-16T19:13:19.366Z,100.00
2018-12-16T19:15:45.267Z,100.00
2018-12-16T19:18:11.214Z,100.00
2018-12-16T19:20:37.124Z,100.00
2018-12-16T19:23:03.153Z,100.00
2018-12-16T19:25:29.620Z,100.00
2018-12-16T19:27:55.531Z,100.00
2018-12-16T19:30:21.451Z,100.00
2018-12-16T19:32:47.331Z,100.00
2018-12-16T19:35:13.311Z,100.00
2018-12-16T19:37:39.186Z,100.00
2018-12-16T19:40:05.224Z,100.00
2018-12-16T19:42:31.098Z,100.00
2018-12-16T19:44:56.993Z,100.00
2018-12-16T19:47:22.891Z,100.00
2018-12-16T19:49:48.762Z,100.00
2018-12-16T19:52:14.671Z,100.00
2018-12-16T19:54:40.980Z,100.00
2018-12-16T19:57:07.576Z,100.00
2018-12-16T19:59:33.468Z,100.00
2018-12-16T20:04:58.432Z,100.00
2018-12-16T20:07:24.377Z,100.00
2018-12-16T20:09:50.387Z,100.00
2018-12-16T20:12:16.681Z,100.00
2018-12-16T20:14:43.266Z,100.00
2018-12-16T20:17:09.316Z,100.00
2018-12-16T20:19:35.266Z,100.00
2018-12-16T20:22:01.259Z,100.00
2018-12-16T20:24:27.314Z,100.00
2018-12-16T20:26:53.277Z,100.00
2018-12-16T20:29:19.182Z,100.00
2018-12-16T20:31:45.096Z,100.00
2018-12-16T20:34:11.154Z,100.00
2018-12-16T20:36:37.068Z,100.00
2018-12-16T20:39:04.801Z,100.00
2018-12-16T20:41:30.755Z,100.00
2018-12-16T20:44:03.780Z,100.00
2018-12-16T20:46:29.768Z,100.00
2018-12-16T20:48:55.770Z,100.00
2018-12-16T20:51:21.614Z,100.00
2018-12-16T20:53:47.514Z,100.00
2018-12-16T20:56:13.586Z,100.00
2018-12-16T20:58:39.515Z,100.00
2018-12-16T21:01:05.552Z,100.00
2018-12-16T21:03:31.475Z,100.00
2018-12-16T21:05:57.373Z,100.00
2018-12-16T21:08:23.299Z,100.00
2018-12-16T21:10:49.207Z,100.00
2018-12-16T21:13:21.299Z,100.00
2018-12-16T21:15:53.346Z,100.00
2018-12-16T21:18:21.998Z,100.00
2018-12-16T21:20:47.863Z,100.00
2018-12-16T21:23:13.710Z,100.00
2018-12-16T21:25:40.121Z,100.00
2018-12-16T21:28:06.223Z,100.00
2018-12-16T21:30:32.425Z,100.00
2018-12-16T21:33:00.201Z,100.00
2018-12-16T21:35:26.166Z,100.00
2018-12-16T21:37:52.046Z,100.00
2018-12-16T21:40:18.058Z,100.00
2018-12-16T21:42:43.923Z,100.00
2018-12-16T21:45:09.794Z,100.00
2018-12-16T21:47:35.681Z,100.00
2018-12-16T21:50:02.342Z,100.00
2018-12-16T21:52:28.222Z,100.00
2018-12-16T21:54:54.377Z,100.00
2018-12-16T21:57:20.403Z,100.00
2018-12-16T21:59:46.313Z,100.00
2018-12-16T22:02:12.204Z,100.00
2018-12-16T22:04:38.320Z,100.00
2018-12-16T22:07:04.255Z,100.00
2018-12-16T22:09:30.262Z,100.00
2018-12-16T22:11:56.126Z,100.00
2018-12-16T22:14:22.051Z,100.00
2018-12-16T22:16:47.967Z,100.00
2018-12-16T22:19:13.811Z,100.00
2018-12-16T22:21:39.808Z,100.00
2018-12-16T22:24:06.227Z,100.00
2018-12-16T22:26:32.411Z,100.00
2018-12-16T22:28:58.259Z,100.00
2018-12-16T22:31:25.125Z,100.00
2018-12-16T22:33:51.124Z,100.00
2018-12-16T22:36:17.452Z,100.00
2018-12-16T22:38:43.403Z,100.00
2018-12-16T22:41:09.264Z,100.00
2018-12-16T22:43:35.165Z,100.00
2018-12-16T22:46:03.919Z,100.00
2018-12-16T22:48:29.875Z,100.00
2018-12-16T22:50:55.782Z,100.00
2018-12-16T22:53:21.628Z,100.00
2018-12-16T22:55:47.603Z,100.00
2018-12-16T22:58:13.566Z,100.00
2018-12-16T23:00:47.780Z,100.00
2018-12-16T23:03:13.681Z,100.00
2018-12-16T23:05:39.522Z,100.00
2018-12-16T23:08:05.384Z,100.00
2018-12-16T23:10:31.261Z,100.00
2018-12-16T23:12:57.182Z,100.00
2018-12-16T23:15:23.093Z,100.00
2018-12-16T23:17:48.956Z,100.00
2018-12-16T23:20:17.229Z,100.00
2018-12-16T23:22:43.099Z,100.00
2018-12-16T23:25:09.459Z,100.00
2018-12-16T23:27:35.379Z,100.00
2018-12-16T23:30:01.298Z,100.00
2018-12-16T23:32:27.158Z,100.00
2018-12-16T23:34:53.061Z,100.00
2018-12-16T23:37:18.930Z,100.00
2018-12-16T23:39:44.787Z,100.00
2018-12-16T23:42:10.625Z,100.00
2018-12-16T23:44:36.746Z,100.00
2018-12-16T23:47:02.582Z,100.00
2018-12-16T23:49:28.460Z,100.00
2018-12-16T23:51:54.315Z,100.00
2018-12-16T23:54:20.145Z,100.00
2018-12-16T23:56:46.109Z,100.00
2018-12-16T23:59:11.971Z,100.00
